Aline, OK

11:01 AM CDT on July 29, 2014 (GMT -0500)
West (KOKCHERO2) Elev 1201 ft | 36.75 °N, 98.36 °W | Change Station
Active Advisory: Flash Flood Watch

Current weather conditions updated 13 minutes ago

Clear
Clear
83.2 °F
Feels Like 86 °F
N
0.0
Wind Variable Wind from NE

Today is forecast to be nearly the same temperature as yesterday. Thunderstorms tonight.

Today
High -- | Low -- °F
--% Chance of Precip.
Yesterday
High -- | Low -- °F
Precip. -- in
6:37 AM 8:42 PM
Waxing Crescent, 7% visible
Pressure 30.19 in
Visibility 10.0 miles
Clouds Clear
Heat Index 86 °F
Dew Point 66 °F
Humidity 57%
Rainfall 0.00 in
Snow Depth Not available.
UV 2.5 out of 12
Pollen 5.60 out of 12
Air Quality Not available.
Flu Activity Not available.
METAR KAVK 291550Z AUTO 21007KT 10SM CLR 28/16 A3019 RMK AO2

More Conditions Fewer Conditions

Pressure 30.19 in
Visibility 10.0 miles
Clouds Clear
Heat Index 86 °F
Dew Point 66 °F
Humidity 57%
Rainfall 0.00 in
Snow Depth Not available.
UV 2.5 out of 12
Pollen 5.60 out of 12
Air Quality Not available.
Flu Activity Not available.
METAR KAVK 291550Z AUTO 21007KT 10SM CLR 28/16 A3019 RMK AO2

More Conditions Fewer Conditions

10-Day Weather Forecast

Almanac

Astronomy

Jul. 29, 2014 Rise Set
Actual Time 6:37 AM CDT 8:42 PM CDT
Civil Twilight 6:08 AM CDT 9:10 PM CDT
Nautical Twilight 5:33 AM CDT 9:45 PM CDT
Astronomical Twilight 4:56 AM CDT 10:23 PM CDT
Moon 9:09 AM CDT 10:02 PM CDT
Length of Visible Light 15h 02m
Length of Day
14h 04m
Tomorrow will be 1m 40s shorter.
Waxing Crescent, 7% of the Moon is Illuminated
Today
Waxing Crescent
Aug 3
First Quarter
Aug 10
Full
Aug 17
Last Quarter
Aug 25
New

Today's Extremes

State Highs State Lows

Community

WunderPhotos

Upload Photos

1,738,773 photos uploaded!

Nearby

Snow Depth

Station Depth Elevation
No new snow has been reported.

Earthquake Activity

City Distance Mag. Time & Date
Guthrie, Oklahoma 72 miles 2.7 5:27 AM CDT
2014-07-24
Langston, Oklahoma 77 miles 3.2 9:03 AM CDT
2014-07-23
Langston, Oklahoma 76 miles 3.3 9:02 PM CDT
2014-07-22
Guthrie, Oklahoma 73 miles 2.5 7:25 PM CDT
2014-07-22
Minimum magnitude displayed is 2.5.

Coastal Water Temperatures

Place Temperature
No Stations Reporting

Nearby Weather Stations

Station Location Temp. Heat Index Dew Point Humidity Wind Precip. Elev Updated Type
West, Cherokee, OK 83.2 °F 86 °F 66 °F 57% NE  at  0.0 mph - / hr 1201 ft 10:48 AM CDT Normal
Amateur Radio W5PDB, Jet, OK 85.1 °F 83 °F 50 °F 30% North  at  - 0.00 in / hr 1280 ft 11:00 AM CDT Rapid Fire

Show More Stations Show Fewer Stations